createdAt,value
2022-12-22T00:00:54.677Z,48.60
2022-12-22T00:02:17.405Z,48.50
2022-12-22T00:03:38.764Z,48.60
2022-12-22T00:05:04.982Z,48.50
2022-12-22T00:06:29.509Z,48.60
2022-12-22T00:07:50.601Z,48.50
2022-12-22T00:09:11.616Z,48.50
2022-12-22T00:10:33.108Z,48.40
2022-12-22T00:11:54.334Z,48.50
2022-12-22T00:13:15.574Z,48.60
2022-12-22T00:14:36.760Z,48.60
2022-12-22T00:15:57.772Z,48.60
2022-12-22T00:17:20.887Z,48.60
2022-12-22T00:18:42.547Z,48.60
2022-12-22T00:20:03.608Z,48.70
2022-12-22T00:21:24.751Z,48.70
2022-12-22T00:22:46.003Z,48.70
2022-12-22T00:24:07.244Z,48.60
2022-12-22T00:25:32.454Z,48.60
2022-12-22T00:26:54.569Z,48.80
2022-12-22T00:28:15.524Z,48.80
2022-12-22T00:29:36.799Z,48.80
2022-12-22T00:30:58.171Z,49.00
2022-12-22T00:32:20.882Z,49.10
2022-12-22T00:33:42.010Z,49.00
2022-12-22T00:35:03.089Z,49.10
2022-12-22T00:36:26.613Z,49.30
2022-12-22T00:37:56.370Z,49.30
2022-12-22T00:39:17.610Z,49.30
2022-12-22T00:40:45.029Z,49.30
2022-12-22T00:42:06.397Z,49.40
2022-12-22T00:43:27.596Z,49.40
2022-12-22T00:44:48.801Z,49.40
2022-12-22T00:46:11.119Z,49.30
2022-12-22T00:47:39.359Z,49.30
2022-12-22T00:49:02.111Z,49.40
2022-12-22T00:50:23.564Z,49.60
2022-12-22T00:51:44.959Z,49.70
2022-12-22T00:53:06.056Z,49.90
2022-12-22T00:54:31.198Z,49.80
2022-12-22T00:55:52.220Z,49.70
2022-12-22T00:57:13.465Z,49.40
2022-12-22T00:58:37.844Z,49.70
2022-12-22T00:59:59.441Z,50.30
2022-12-22T01:01:20.558Z,50.70
2022-12-22T01:02:41.844Z,50.80
2022-12-22T01:04:03.381Z,51.00
2022-12-22T01:05:24.567Z,51.00
2022-12-22T01:06:50.639Z,51.10
2022-12-22T01:08:11.766Z,51.40
2022-12-22T01:09:32.820Z,51.20
2022-12-22T01:10:53.864Z,51.50
2022-12-22T01:12:14.950Z,51.50
2022-12-22T01:13:36.216Z,51.70
2022-12-22T01:14:57.360Z,51.90
2022-12-22T01:16:19.022Z,51.80
2022-12-22T01:17:39.935Z,52.00
2022-12-22T01:19:00.983Z,52.50
2022-12-22T01:20:22.234Z,52.40
2022-12-22T01:21:43.636Z,52.40
2022-12-22T01:23:04.857Z,52.30
2022-12-22T01:24:33.358Z,52.00
2022-12-22T01:25:54.511Z,51.90
2022-12-22T01:27:15.492Z,52.20
2022-12-22T01:28:36.681Z,52.00
2022-12-22T01:29:57.719Z,51.80
2022-12-22T01:31:37.861Z,51.80
2022-12-22T01:32:59.030Z,51.80
2022-12-22T01:34:20.069Z,51.80
2022-12-22T01:35:44.764Z,51.50
2022-12-22T01:37:05.927Z,52.00
2022-12-22T01:38:27.046Z,52.20
2022-12-22T01:39:47.781Z,52.60
2022-12-22T01:41:09.436Z,52.50
2022-12-22T01:42:31.796Z,52.40
2022-12-22T01:43:53.995Z,52.30
2022-12-22T01:45:19.040Z,52.60
2022-12-22T01:46:47.847Z,52.00
2022-12-22T01:48:08.914Z,52.00
2022-12-22T01:49:39.190Z,52.00
2022-12-22T01:51:00.898Z,51.90
2022-12-22T01:52:22.451Z,51.90
2022-12-22T01:53:46.573Z,51.90
2022-12-22T01:55:08.639Z,51.90
2022-12-22T01:56:30.098Z,51.80
2022-12-22T01:57:52.315Z,51.80
2022-12-22T01:59:15.989Z,51.80
2022-12-22T02:00:37.223Z,51.90
2022-12-22T02:01:58.935Z,51.80
2022-12-22T02:03:21.255Z,51.80
2022-12-22T02:04:47.304Z,51.80
2022-12-22T02:06:24.465Z,51.80
2022-12-22T02:08:10.221Z,51.70
2022-12-22T02:09:40.535Z,51.40
2022-12-22T02:11:32.000Z,52.00
2022-12-22T02:13:12.447Z,52.50
2022-12-22T02:14:33.535Z,52.60
2022-12-22T02:16:09.645Z,52.40
2022-12-22T02:17:53.595Z,52.30
2022-12-22T02:19:40.487Z,52.30
2022-12-22T02:21:12.171Z,52.30
2022-12-22T02:23:03.886Z,52.40
2022-12-22T02:25:05.440Z,52.20
2022-12-22T02:26:46.398Z,52.00
2022-12-22T02:28:10.155Z,52.00
2022-12-22T02:29:33.778Z,52.00
2022-12-22T02:30:55.352Z,52.00
2022-12-22T02:32:16.388Z,52.00
2022-12-22T02:33:39.317Z,51.90
2022-12-22T02:35:00.618Z,51.70
2022-12-22T02:36:35.294Z,52.10
2022-12-22T02:38:15.200Z,52.30
2022-12-22T02:39:53.703Z,52.30
2022-12-22T02:41:29.618Z,52.30
2022-12-22T02:43:09.324Z,52.70
2022-12-22T02:44:57.316Z,53.00
2022-12-22T02:46:28.439Z,53.30
2022-12-22T02:48:06.909Z,52.80
2022-12-22T02:50:02.029Z,52.60
2022-12-22T02:51:45.731Z,52.20
2022-12-22T02:53:07.950Z,51.80
2022-12-22T02:54:30.388Z,51.70
2022-12-22T02:55:51.475Z,51.60
2022-12-22T02:57:12.491Z,51.60
2022-12-22T02:58:34.112Z,51.40
2022-12-22T02:59:55.163Z,51.30
2022-12-22T03:01:16.844Z,51.10
2022-12-22T03:02:38.193Z,51.10
2022-12-22T03:03:59.373Z,51.30
2022-12-22T03:05:20.757Z,51.40
2022-12-22T03:06:41.859Z,51.70
2022-12-22T03:08:08.031Z,51.90
2022-12-22T03:09:29.948Z,51.80
2022-12-22T03:10:51.131Z,52.10
2022-12-22T03:12:12.203Z,52.10
2022-12-22T03:13:33.414Z,52.20
2022-12-22T03:14:54.373Z,52.50
2022-12-22T03:16:15.434Z,52.30
2022-12-22T03:17:36.501Z,52.20
2022-12-22T03:18:57.507Z,52.30
2022-12-22T03:20:18.524Z,52.20
2022-12-22T03:21:39.569Z,52.20
2022-12-22T03:23:00.691Z,52.20
2022-12-22T03:24:22.101Z,51.80
2022-12-22T03:25:43.143Z,51.70
2022-12-22T03:26:45.688Z,52.00
2022-12-22T03:27:47.982Z,51.80
2022-12-22T03:28:50.346Z,52.00
2022-12-22T03:29:52.664Z,51.80
2022-12-22T03:30:58.564Z,52.00
2022-12-22T03:32:01.038Z,51.50
2022-12-22T03:33:03.708Z,51.30
2022-12-22T03:34:06.068Z,51.30
2022-12-22T03:35:08.892Z,51.10
2022-12-22T03:36:11.390Z,51.00
2022-12-22T03:37:13.663Z,50.90
2022-12-22T03:38:16.045Z,50.80
2022-12-22T03:39:18.411Z,50.60
2022-12-22T03:40:20.893Z,50.40
2022-12-22T03:41:42.010Z,50.30
2022-12-22T03:43:03.117Z,50.20
2022-12-22T03:44:24.312Z,50.10
2022-12-22T03:45:45.415Z,50.00
2022-12-22T03:46:47.767Z,50.00
2022-12-22T03:47:50.125Z,49.80
2022-12-22T03:49:10.822Z,49.70
2022-12-22T03:50:13.242Z,49.60
2022-12-22T03:51:15.681Z,49.50
2022-12-22T03:52:18.072Z,49.40
2022-12-22T03:53:20.418Z,49.30
2022-12-22T03:54:25.189Z,49.40
2022-12-22T03:55:27.834Z,49.30
2022-12-22T03:56:30.963Z,49.20
2022-12-22T03:57:33.286Z,49.10
2022-12-22T03:58:35.682Z,49.10
2022-12-22T03:59:38.038Z,48.40
2022-12-22T04:00:40.387Z,48.40
2022-12-22T04:01:53.475Z,48.50
2022-12-22T04:02:59.054Z,48.90
2022-12-22T04:04:01.374Z,49.10
2022-12-22T04:05:04.253Z,49.20
2022-12-22T04:06:06.761Z,49.30
2022-12-22T04:07:09.299Z,49.30
2022-12-22T04:08:11.636Z,49.30
2022-12-22T04:09:14.018Z,49.30
2022-12-22T04:10:35.070Z,49.10
2022-12-22T04:11:56.192Z,49.10
2022-12-22T04:12:58.494Z,49.20
2022-12-22T04:14:01.018Z,49.10
2022-12-22T04:15:03.357Z,49.10
2022-12-22T04:16:06.318Z,49.00
2022-12-22T04:17:09.860Z,49.50
2022-12-22T04:18:12.188Z,49.10
2022-12-22T04:19:15.946Z,49.10
2022-12-22T04:20:19.644Z,49.10
2022-12-22T04:21:21.959Z,49.30
2022-12-22T04:22:24.249Z,49.60
2022-12-22T04:23:26.581Z,49.80
2022-12-22T04:24:28.939Z,49.90
2022-12-22T04:25:31.369Z,50.10
2022-12-22T04:26:34.839Z,50.20
2022-12-22T04:27:37.356Z,50.40
2022-12-22T04:28:39.705Z,50.60
2022-12-22T04:29:42.068Z,50.20
2022-12-22T04:30:44.355Z,50.30
2022-12-22T04:31:46.772Z,50.30
2022-12-22T04:32:49.251Z,50.30
2022-12-22T04:33:51.586Z,50.40
2022-12-22T04:34:53.907Z,50.50
2022-12-22T04:35:56.276Z,50.10
2022-12-22T04:37:07.003Z,49.80
2022-12-22T04:38:15.340Z,49.80
2022-12-22T04:39:17.592Z,49.40
2022-12-22T04:40:20.154Z,49.40
2022-12-22T04:41:22.510Z,49.10
2022-12-22T04:42:24.996Z,49.20
2022-12-22T04:43:27.429Z,49.00
2022-12-22T04:44:30.211Z,48.80
2022-12-22T04:45:32.574Z,48.60
2022-12-22T04:46:35.127Z,48.60
2022-12-22T04:47:37.436Z,48.50
2022-12-22T04:48:39.907Z,48.80
2022-12-22T04:49:42.719Z,48.10
2022-12-22T04:50:45.046Z,48.30
2022-12-22T04:51:47.456Z,47.60
2022-12-22T04:52:49.767Z,47.60
2022-12-22T04:53:52.209Z,47.50
2022-12-22T04:54:54.546Z,47.10
2022-12-22T04:56:00.629Z,47.10
2022-12-22T04:57:02.985Z,47.00
2022-12-22T04:58:05.304Z,47.10
2022-12-22T04:59:07.851Z,46.90
2022-12-22T05:00:10.863Z,47.00
2022-12-22T05:01:15.875Z,46.80
2022-12-22T05:02:18.346Z,46.90
2022-12-22T05:03:21.135Z,46.80
2022-12-22T05:04:23.987Z,46.80
2022-12-22T05:05:26.520Z,46.90
2022-12-22T05:06:29.017Z,47.30
2022-12-22T05:07:31.337Z,46.80
2022-12-22T05:08:33.873Z,46.80
2022-12-22T05:09:36.238Z,46.70
2022-12-22T05:10:38.863Z,46.70
2022-12-22T05:11:41.453Z,46.70
2022-12-22T05:12:55.936Z,46.60
2022-12-22T05:14:02.153Z,46.60
2022-12-22T05:15:09.569Z,46.70
2022-12-22T05:16:14.990Z,46.70
2022-12-22T05:17:17.505Z,46.70
2022-12-22T05:18:19.881Z,46.70
2022-12-22T05:19:24.942Z,46.80
2022-12-22T05:20:31.573Z,46.70
2022-12-22T05:21:34.268Z,46.60
2022-12-22T05:22:36.600Z,46.70
2022-12-22T05:23:40.213Z,46.60
2022-12-22T05:24:42.481Z,46.60
2022-12-22T05:25:44.770Z,46.50
2022-12-22T05:26:47.167Z,46.60
2022-12-22T05:27:50.625Z,46.80
2022-12-22T05:28:52.991Z,46.70
2022-12-22T05:29:55.343Z,46.60
2022-12-22T05:30:58.259Z,46.50
2022-12-22T05:32:00.612Z,46.60
2022-12-22T05:33:02.893Z,46.50
2022-12-22T05:34:05.276Z,46.70
2022-12-22T05:35:08.252Z,46.50
2022-12-22T05:36:11.076Z,46.50
2022-12-22T05:37:13.331Z,46.60
2022-12-22T05:38:15.719Z,46.50
2022-12-22T05:39:18.083Z,46.40
2022-12-22T05:40:20.599Z,46.60
2022-12-22T05:41:22.903Z,46.60
2022-12-22T05:42:37.452Z,46.30
2022-12-22T05:43:39.927Z,46.10
2022-12-22T05:44:42.259Z,46.50
2022-12-22T05:45:45.807Z,47.10
2022-12-22T05:46:51.345Z,48.70
2022-12-22T05:47:53.694Z,48.00
2022-12-22T05:48:56.124Z,47.80
2022-12-22T05:49:58.461Z,48.00
2022-12-22T05:51:01.809Z,47.90
2022-12-22T05:52:04.280Z,47.50
2022-12-22T05:53:07.734Z,47.80
2022-12-22T05:54:10.841Z,48.00
2022-12-22T05:55:14.865Z,47.70
2022-12-22T05:56:17.258Z,47.60
2022-12-22T05:57:19.621Z,47.50
2022-12-22T05:58:21.925Z,47.50
2022-12-22T05:59:24.258Z,47.60
2022-12-22T06:00:26.659Z,47.50
2022-12-22T06:01:28.997Z,47.30
2022-12-22T06:02:31.491Z,47.30
2022-12-22T06:03:34.145Z,47.00
2022-12-22T06:04:36.584Z,46.90
2022-12-22T06:05:38.948Z,47.00
2022-12-22T06:06:41.259Z,47.10
2022-12-22T06:07:43.664Z,47.30
2022-12-22T06:08:46.054Z,47.70
2022-12-22T06:09:48.392Z,47.10
2022-12-22T06:10:51.284Z,47.10
2022-12-22T06:11:53.660Z,47.00
2022-12-22T06:12:56.528Z,46.80
2022-12-22T06:13:59.175Z,46.80
2022-12-22T06:15:01.821Z,46.70
2022-12-22T06:16:04.522Z,46.70
2022-12-22T06:17:07.081Z,46.80
2022-12-22T06:18:09.762Z,46.70
2022-12-22T06:19:12.443Z,46.70
2022-12-22T06:20:15.347Z,46.70
2022-12-22T06:21:17.822Z,46.80
2022-12-22T06:22:20.241Z,47.30
2022-12-22T06:23:22.878Z,46.80
2022-12-22T06:24:25.237Z,46.80
2022-12-22T06:25:27.549Z,46.70
2022-12-22T06:26:30.063Z,46.80
2022-12-22T06:27:32.378Z,46.90
2022-12-22T06:28:34.766Z,46.80
2022-12-22T06:29:37.271Z,47.00
2022-12-22T06:30:39.571Z,47.30
2022-12-22T06:31:42.040Z,47.50
2022-12-22T06:32:44.497Z,46.60
2022-12-22T06:33:47.791Z,46.30
2022-12-22T06:34:50.109Z,45.30
2022-12-22T06:35:58.715Z,46.70
2022-12-22T06:37:01.724Z,47.20
2022-12-22T06:38:04.021Z,47.60
2022-12-22T06:39:07.105Z,47.50
2022-12-22T06:40:10.008Z,47.60
2022-12-22T06:41:12.338Z,47.60
2022-12-22T06:42:33.164Z,47.70
2022-12-22T06:43:35.490Z,48.10
2022-12-22T06:44:37.882Z,47.50
2022-12-22T06:45:42.161Z,47.10
2022-12-22T06:46:44.558Z,47.30
2022-12-22T06:47:46.826Z,47.10
2022-12-22T06:48:49.142Z,47.00
2022-12-22T06:49:52.231Z,47.00
2022-12-22T06:50:59.351Z,46.90
2022-12-22T06:52:01.674Z,46.90
2022-12-22T06:53:29.532Z,46.90
2022-12-22T06:54:57.512Z,46.80
2022-12-22T06:55:59.827Z,46.60
2022-12-22T06:57:02.077Z,46.90
2022-12-22T06:58:05.340Z,48.00
2022-12-22T06:59:07.756Z,46.80
2022-12-22T07:00:10.657Z,44.40
2022-12-22T07:01:13.104Z,47.10
2022-12-22T07:02:15.588Z,47.20
2022-12-22T07:03:18.162Z,47.20
2022-12-22T07:04:21.437Z,47.30
2022-12-22T07:05:24.520Z,47.40
2022-12-22T07:06:26.859Z,47.50
2022-12-22T07:07:29.270Z,47.50
2022-12-22T07:08:31.592Z,47.50
2022-12-22T07:09:34.079Z,47.60
2022-12-22T07:10:55.273Z,47.40
2022-12-22T07:11:57.633Z,47.20
2022-12-22T07:13:18.994Z,47.10
2022-12-22T07:14:21.694Z,47.50
2022-12-22T07:15:24.069Z,47.60
2022-12-22T07:16:26.679Z,47.70
2022-12-22T07:17:28.969Z,47.50
2022-12-22T07:18:34.084Z,47.60
2022-12-22T07:19:36.575Z,47.70
2022-12-22T07:20:38.847Z,47.60
2022-12-22T07:21:41.260Z,47.80
2022-12-22T07:22:43.572Z,47.60
2022-12-22T07:23:45.944Z,47.50
2022-12-22T07:24:48.274Z,47.50
2022-12-22T07:25:50.629Z,47.50
2022-12-22T07:27:14.467Z,47.30
2022-12-22T07:28:20.942Z,47.30
2022-12-22T07:29:23.771Z,47.30
2022-12-22T07:30:26.087Z,47.40
2022-12-22T07:31:28.533Z,47.10
2022-12-22T07:32:30.842Z,47.00
2022-12-22T07:33:51.878Z,44.60
2022-12-22T07:34:54.154Z,43.60
2022-12-22T07:36:08.116Z,44.50
2022-12-22T07:37:11.925Z,45.00
2022-12-22T07:38:14.274Z,46.30
2022-12-22T07:39:16.564Z,46.90
2022-12-22T07:40:18.858Z,47.30
2022-12-22T07:41:40.083Z,47.40
2022-12-22T07:42:45.592Z,47.50
2022-12-22T07:43:47.843Z,47.60
2022-12-22T07:44:50.140Z,47.90
2022-12-22T07:45:52.521Z,47.80
2022-12-22T07:46:55.002Z,47.60
2022-12-22T07:48:01.805Z,47.60
2022-12-22T07:49:26.488Z,47.80
2022-12-22T07:50:28.799Z,47.60
2022-12-22T07:51:39.163Z,47.40
2022-12-22T07:52:41.403Z,47.30
2022-12-22T07:54:04.674Z,47.10
2022-12-22T07:55:27.519Z,47.70
2022-12-22T07:56:30.257Z,47.50
2022-12-22T07:57:32.692Z,47.10
2022-12-22T07:58:53.267Z,47.00
2022-12-22T07:59:55.574Z,46.80
2022-12-22T08:00:59.879Z,46.80
2022-12-22T08:02:02.262Z,46.70
2022-12-22T08:03:04.874Z,46.60
2022-12-22T08:04:12.426Z,46.70
2022-12-22T08:05:14.971Z,46.70
2022-12-22T08:06:17.654Z,46.70
2022-12-22T08:07:20.023Z,45.60
2022-12-22T08:08:40.753Z,44.30
2022-12-22T08:09:43.149Z,46.10
2022-12-22T08:10:45.504Z,46.00
2022-12-22T08:11:50.829Z,46.20
2022-12-22T08:12:53.212Z,46.40
2022-12-22T08:14:01.045Z,46.50
2022-12-22T08:15:04.918Z,46.50
2022-12-22T08:16:09.695Z,46.60
2022-12-22T08:17:31.097Z,46.80
2022-12-22T08:18:34.432Z,46.50
2022-12-22T08:19:36.756Z,46.70
2022-12-22T08:20:39.144Z,46.60
2022-12-22T08:22:01.189Z,47.10
2022-12-22T08:23:21.971Z,46.70
2022-12-22T08:24:24.400Z,46.70
2022-12-22T08:25:26.854Z,46.60
2022-12-22T08:26:36.118Z,46.70
2022-12-22T08:27:44.304Z,47.00
2022-12-22T08:28:56.626Z,46.90
2022-12-22T08:30:01.919Z,47.10
2022-12-22T08:31:04.731Z,47.40
2022-12-22T08:32:07.267Z,47.50
2022-12-22T08:33:09.911Z,47.30
2022-12-22T08:34:15.409Z,47.40
2022-12-22T08:35:18.458Z,47.30
2022-12-22T08:36:21.171Z,47.60
2022-12-22T08:37:26.663Z,47.50
2022-12-22T08:38:30.911Z,47.50
2022-12-22T08:39:38.087Z,47.90
2022-12-22T08:40:43.766Z,48.00
2022-12-22T08:42:06.937Z,47.80
2022-12-22T08:43:11.097Z,47.90
2022-12-22T08:44:32.147Z,43.50
2022-12-22T08:45:34.846Z,45.70
2022-12-22T08:46:37.425Z,46.20
2022-12-22T08:47:40.183Z,46.90
2022-12-22T08:48:42.843Z,47.30
2022-12-22T08:49:45.324Z,47.60
2022-12-22T08:50:47.662Z,46.70
2022-12-22T08:51:50.426Z,47.80
2022-12-22T08:52:52.941Z,47.90
2022-12-22T08:54:04.987Z,47.90
2022-12-22T08:55:09.539Z,47.70
2022-12-22T08:56:11.881Z,47.70
2022-12-22T08:57:14.320Z,47.70
2022-12-22T08:58:16.597Z,47.50
2022-12-22T08:59:18.998Z,47.80
2022-12-22T09:00:22.001Z,47.80
2022-12-22T09:01:37.175Z,48.10
2022-12-22T09:02:41.125Z,48.00
2022-12-22T09:03:47.678Z,48.10
2022-12-22T09:04:51.556Z,48.00
2022-12-22T09:06:03.622Z,48.10
2022-12-22T09:07:09.435Z,47.90
2022-12-22T09:08:12.229Z,47.70
2022-12-22T09:09:16.340Z,47.60
2022-12-22T09:10:19.174Z,47.60
2022-12-22T09:11:21.943Z,47.60
2022-12-22T09:12:24.568Z,45.60
2022-12-22T09:13:27.135Z,47.00
2022-12-22T09:14:30.526Z,47.30
2022-12-22T09:15:33.192Z,47.50
2022-12-22T09:16:36.826Z,47.50
2022-12-22T09:17:39.734Z,47.70
2022-12-22T09:19:05.591Z,47.70
2022-12-22T09:20:21.612Z,47.70
2022-12-22T09:21:31.653Z,47.70
2022-12-22T09:22:34.886Z,47.60
2022-12-22T09:23:41.624Z,47.80
2022-12-22T09:24:44.908Z,47.60
2022-12-22T09:25:47.982Z,47.60
2022-12-22T09:26:50.629Z,47.60
2022-12-22T09:29:10.344Z,47.60
2022-12-22T09:30:13.564Z,47.30
2022-12-22T09:31:16.715Z,47.40
2022-12-22T09:32:19.221Z,47.50
2022-12-22T09:33:21.510Z,47.50
2022-12-22T09:34:23.850Z,47.40
2022-12-22T09:35:26.159Z,47.40
2022-12-22T09:36:31.155Z,47.40
2022-12-22T09:37:33.720Z,47.40
2022-12-22T09:38:37.096Z,47.30
2022-12-22T09:39:39.371Z,47.30
2022-12-22T09:40:41.718Z,47.40
2022-12-22T09:41:43.994Z,47.40
2022-12-22T09:42:46.349Z,47.40
2022-12-22T09:43:48.763Z,47.40
2022-12-22T09:44:51.967Z,47.50
2022-12-22T09:45:55.564Z,47.40
2022-12-22T09:47:01.545Z,47.40
2022-12-22T09:48:04.177Z,47.50
2022-12-22T09:49:07.418Z,47.40
2022-12-22T09:50:17.250Z,47.30
2022-12-22T09:51:26.476Z,47.20
2022-12-22T09:52:35.924Z,47.10
2022-12-22T09:53:38.502Z,46.10
2022-12-22T09:54:41.004Z,46.80
2022-12-22T09:55:47.333Z,47.60
2022-12-22T09:56:50.332Z,47.70
2022-12-22T09:57:55.887Z,47.70
2022-12-22T09:58:58.249Z,47.70
2022-12-22T10:00:19.142Z,47.70
2022-12-22T10:01:40.505Z,47.70
2022-12-22T10:02:50.075Z,47.70
2022-12-22T10:04:04.446Z,47.70
2022-12-22T10:05:28.152Z,47.60
2022-12-22T10:07:02.263Z,47.60
2022-12-22T10:08:28.532Z,47.60
2022-12-22T10:10:55.792Z,47.30
2022-12-22T10:12:01.295Z,47.20
2022-12-22T10:13:05.118Z,47.40
2022-12-22T10:14:10.733Z,47.30
2022-12-22T10:15:18.338Z,46.00
2022-12-22T10:16:27.521Z,47.60
2022-12-22T10:17:32.689Z,47.50
2022-12-22T10:18:35.452Z,47.60
2022-12-22T10:19:37.796Z,47.60
2022-12-22T10:20:42.334Z,47.70
2022-12-22T10:21:49.812Z,47.80
2022-12-22T10:22:59.244Z,47.90
2022-12-22T10:24:28.427Z,47.90
2022-12-22T10:26:27.528Z,47.90
2022-12-22T10:27:29.263Z,47.70
2022-12-22T10:28:55.000Z,47.60
2022-12-22T10:30:18.767Z,47.90
2022-12-22T10:31:21.246Z,47.90
2022-12-22T10:32:24.177Z,47.90
2022-12-22T10:33:34.359Z,48.00
2022-12-22T10:34:36.919Z,48.10
2022-12-22T10:35:58.929Z,48.00
2022-12-22T10:37:05.638Z,48.10
2022-12-22T10:38:36.560Z,48.10
2022-12-22T10:39:40.617Z,48.00
2022-12-22T10:40:46.269Z,48.10
2022-12-22T10:41:51.462Z,48.60
2022-12-22T10:42:55.803Z,48.20
2022-12-22T10:44:02.488Z,48.20
2022-12-22T10:45:05.630Z,48.20
2022-12-22T10:46:08.343Z,48.20
2022-12-22T10:47:21.452Z,48.20
2022-12-22T10:48:35.634Z,48.20
2022-12-22T10:50:49.290Z,48.60
2022-12-22T10:52:10.977Z,48.10
2022-12-22T10:53:13.477Z,48.00
2022-12-22T10:54:38.169Z,48.40
2022-12-22T10:55:40.990Z,48.50
2022-12-22T10:56:43.499Z,48.40
2022-12-22T10:57:46.178Z,48.30
2022-12-22T10:58:51.751Z,48.40
2022-12-22T10:59:57.826Z,48.60
2022-12-22T11:01:03.484Z,49.10
2022-12-22T11:02:26.915Z,48.30
2022-12-22T11:03:31.473Z,48.00
2022-12-22T11:04:34.198Z,47.90
2022-12-22T11:05:36.558Z,48.00
2022-12-22T11:06:38.994Z,47.70
2022-12-22T11:07:44.108Z,47.80
2022-12-22T11:08:51.536Z,47.70
2022-12-22T11:09:54.302Z,46.80
2022-12-22T11:11:03.521Z,47.90
2022-12-22T11:12:47.369Z,48.90
2022-12-22T11:14:05.725Z,48.70
2022-12-22T11:15:24.971Z,48.60
2022-12-22T11:16:50.830Z,48.60
2022-12-22T11:18:02.913Z,48.30
2022-12-22T11:19:18.247Z,48.50
2022-12-22T11:20:54.299Z,48.50
2022-12-22T11:22:00.846Z,48.80
2022-12-22T11:23:15.037Z,48.50
2022-12-22T11:25:10.867Z,48.40
2022-12-22T11:26:32.037Z,48.30
2022-12-22T11:28:04.870Z,48.30
2022-12-22T11:29:21.582Z,48.10
2022-12-22T11:30:38.055Z,48.40
2022-12-22T11:32:02.938Z,48.00
2022-12-22T11:33:26.283Z,48.00
2022-12-22T11:34:51.796Z,47.70
2022-12-22T11:36:04.761Z,48.20
2022-12-22T11:37:19.792Z,48.20
2022-12-22T11:38:36.231Z,48.40
2022-12-22T11:39:45.626Z,48.00
2022-12-22T11:40:54.732Z,48.20
2022-12-22T11:42:27.799Z,48.30
2022-12-22T11:43:54.939Z,49.80
2022-12-22T11:45:31.205Z,50.50
2022-12-22T11:46:59.954Z,50.30
2022-12-22T11:48:38.391Z,49.90
2022-12-22T11:50:00.892Z,49.60
2022-12-22T11:51:37.393Z,49.60
2022-12-22T11:52:45.528Z,49.20
2022-12-22T11:54:22.325Z,48.90
2022-12-22T11:56:01.097Z,48.90
2022-12-22T11:57:34.245Z,49.00
2022-12-22T11:59:03.758Z,49.00
2022-12-22T12:00:16.688Z,49.10
2022-12-22T12:01:43.375Z,49.40
2022-12-22T12:03:23.983Z,49.40
2022-12-22T12:04:41.530Z,49.20
2022-12-22T12:06:02.660Z,49.20
2022-12-22T12:07:26.616Z,48.80
2022-12-22T12:08:50.006Z,48.90
2022-12-22T12:10:18.046Z,49.00
2022-12-22T12:11:43.044Z,49.70
2022-12-22T12:13:29.937Z,49.80
2022-12-22T12:14:39.610Z,50.30
2022-12-22T12:15:49.942Z,51.20
2022-12-22T12:17:02.877Z,51.50
2022-12-22T12:18:41.850Z,52.40
2022-12-22T12:19:59.557Z,52.90
2022-12-22T12:21:26.418Z,53.80
2022-12-22T12:23:10.267Z,54.00
2022-12-22T12:24:38.081Z,54.00
2022-12-22T12:25:53.570Z,53.80
2022-12-22T12:27:02.857Z,54.20
2022-12-22T12:28:14.742Z,54.40
2022-12-22T12:29:20.610Z,54.70
2022-12-22T12:30:39.756Z,55.50
2022-12-22T12:31:49.976Z,55.60
2022-12-22T12:33:08.370Z,55.30
2022-12-22T12:34:15.538Z,55.70
2022-12-22T12:35:48.568Z,56.10
2022-12-22T12:37:11.702Z,56.20
2022-12-22T12:38:56.719Z,56.70
2022-12-22T12:39:46.616Z,56.80
2022-12-22T12:41:18.703Z,56.80
2022-12-22T12:42:26.760Z,56.70
2022-12-22T12:43:29.901Z,56.50
2022-12-22T12:44:35.877Z,56.50
2022-12-22T12:45:49.035Z,56.40
2022-12-22T12:46:51.454Z,56.60
2022-12-22T12:47:53.905Z,56.40
2022-12-22T12:48:56.370Z,56.40
2022-12-22T12:50:01.739Z,56.40
2022-12-22T12:51:42.379Z,56.80
2022-12-22T12:52:48.543Z,57.00
2022-12-22T12:54:28.918Z,56.70
2022-12-22T12:55:56.012Z,57.00
2022-12-22T12:57:07.142Z,56.80
2022-12-22T12:58:11.604Z,57.10
2022-12-22T12:59:39.952Z,57.10
2022-12-22T13:00:49.765Z,56.90
2022-12-22T13:01:57.301Z,57.10
2022-12-22T13:03:02.140Z,57.30
2022-12-22T13:04:05.794Z,57.50
2022-12-22T13:05:11.264Z,57.30
2022-12-22T13:06:57.470Z,57.90
2022-12-22T13:08:24.079Z,57.80
2022-12-22T13:09:50.036Z,57.80
2022-12-22T13:10:53.354Z,57.90
2022-12-22T13:12:12.843Z,57.80
2022-12-22T13:13:25.917Z,57.80
2022-12-22T13:14:46.621Z,56.30
2022-12-22T13:15:49.944Z,55.50
2022-12-22T13:17:31.117Z,54.50
2022-12-22T13:18:33.450Z,54.00
2022-12-22T13:19:36.162Z,53.70
2022-12-22T13:20:38.951Z,53.20
2022-12-22T13:21:53.307Z,52.90
2022-12-22T13:22:59.734Z,52.50
2022-12-22T13:24:24.189Z,52.20
2022-12-22T13:25:41.304Z,51.80
2022-12-22T13:26:45.295Z,51.40
2022-12-22T13:27:49.350Z,51.00
2022-12-22T13:29:11.293Z,50.80
2022-12-22T13:30:20.476Z,50.50
2022-12-22T13:31:30.295Z,50.30
2022-12-22T13:32:40.068Z,50.00
2022-12-22T13:33:44.790Z,49.80
2022-12-22T13:35:29.128Z,49.60
2022-12-22T13:36:26.120Z,49.50
2022-12-22T13:37:29.526Z,49.40
2022-12-22T13:38:35.057Z,49.40
2022-12-22T13:39:37.733Z,49.20
2022-12-22T13:40:43.437Z,49.00
2022-12-22T13:41:49.448Z,49.00
2022-12-22T13:43:14.070Z,48.90
2022-12-22T13:44:32.765Z,48.80
2022-12-22T13:45:58.940Z,48.70
2022-12-22T13:47:05.772Z,48.70
2022-12-22T13:48:24.726Z,48.70
2022-12-22T13:49:59.239Z,48.60
2022-12-22T13:50:55.289Z,48.60
2022-12-22T13:52:03.401Z,48.60
2022-12-22T13:53:10.117Z,48.50
2022-12-22T13:54:22.404Z,48.40
2022-12-22T13:55:30.703Z,48.40
2022-12-22T13:56:53.887Z,48.40
2022-12-22T13:58:00.888Z,48.40
2022-12-22T13:59:04.543Z,48.40
2022-12-22T14:00:21.838Z,48.40
2022-12-22T14:01:24.710Z,48.30
2022-12-22T14:02:32.813Z,48.30
2022-12-22T14:03:58.803Z,48.20
2022-12-22T14:05:13.426Z,48.30
2022-12-22T14:06:20.754Z,48.50
2022-12-22T14:07:23.279Z,48.70
2022-12-22T14:08:25.567Z,48.70
2022-12-22T14:09:28.312Z,48.70
2022-12-22T14:10:43.398Z,48.70
2022-12-22T14:11:52.320Z,48.60
2022-12-22T14:12:55.645Z,48.50
2022-12-22T14:13:58.024Z,48.40
2022-12-22T14:15:03.060Z,48.40
2022-12-22T14:16:07.108Z,48.50
2022-12-22T14:17:22.280Z,48.50
2022-12-22T14:18:26.640Z,48.10
2022-12-22T14:19:37.424Z,48.00
2022-12-22T14:20:40.265Z,48.90
2022-12-22T14:21:46.322Z,49.60
2022-12-22T14:23:01.517Z,50.20
2022-12-22T14:24:04.708Z,51.30
2022-12-22T14:25:16.900Z,50.90
2022-12-22T14:26:25.894Z,50.60
2022-12-22T14:27:38.719Z,50.30
2022-12-22T14:28:50.395Z,49.90
2022-12-22T14:29:53.078Z,49.70
2022-12-22T14:30:58.609Z,49.60
2022-12-22T14:32:05.537Z,49.30
2022-12-22T14:33:26.727Z,49.00
2022-12-22T14:34:31.901Z,49.00
2022-12-22T14:35:34.265Z,49.00
2022-12-22T14:36:45.896Z,49.00
2022-12-22T14:38:04.739Z,48.80
2022-12-22T14:39:20.842Z,48.80
2022-12-22T14:40:40.498Z,48.80
2022-12-22T14:41:53.574Z,48.70
2022-12-22T14:42:57.687Z,48.50
2022-12-22T14:44:01.199Z,48.50
2022-12-22T14:45:03.887Z,48.40
2022-12-22T14:46:08.653Z,48.30
2022-12-22T14:47:20.325Z,48.30
2022-12-22T14:48:32.942Z,48.40
2022-12-22T14:49:47.291Z,48.30
2022-12-22T14:50:51.786Z,48.30
2022-12-22T14:52:05.437Z,48.30
2022-12-22T14:53:07.812Z,48.20
2022-12-22T14:54:21.408Z,48.20
2022-12-22T14:55:28.142Z,48.10
2022-12-22T14:56:30.778Z,48.10
2022-12-22T14:57:39.423Z,48.10
2022-12-22T14:58:43.248Z,48.20
2022-12-22T15:00:07.493Z,48.20
2022-12-22T15:01:21.574Z,48.20
2022-12-22T15:02:39.543Z,48.20
2022-12-22T15:03:43.691Z,48.10
2022-12-22T15:04:46.256Z,48.10
2022-12-22T15:05:49.063Z,48.20
2022-12-22T15:06:51.642Z,48.20
2022-12-22T15:08:05.932Z,48.10
2022-12-22T15:09:47.628Z,48.00
2022-12-22T15:10:47.857Z,48.40
2022-12-22T15:11:54.537Z,47.90
2022-12-22T15:12:59.782Z,48.50
2022-12-22T15:14:03.808Z,48.90
2022-12-22T15:15:17.547Z,48.90
2022-12-22T15:16:22.560Z,49.50
2022-12-22T15:17:25.815Z,49.10
2022-12-22T15:18:28.604Z,48.90
2022-12-22T15:19:34.009Z,48.90
2022-12-22T15:20:39.587Z,48.70
2022-12-22T15:21:42.455Z,48.60
2022-12-22T15:22:45.274Z,48.50
2022-12-22T15:23:47.637Z,48.50
2022-12-22T15:24:49.981Z,48.50
2022-12-22T15:25:52.323Z,48.40
2022-12-22T15:26:54.819Z,48.80